Latest Weather Observations for Richmond

IDQ60801

Issued at 9:35 am EST Friday 22 August 2014 (issued every 30 minutes, with the page automatically refreshed every 10 minutes)

About weather observations | Map of weather stations | Latest weather observations for QLD | Other Formats
Station Details ID: 030161 Name: RICHMOND AIRPORT Lat: -20.70 Lon: 143.12 Height: 206.3 m
Data from the previous 72 hours. | See also: Recent months at Richmond
Date/Time
EST
Temp
°C
App
Temp
°C
Dew
Point
Rel
Hum
%
Delta-T
°C
Wind Press
QNH
hPa
Press
MSL
hPa
Rain
since 9 am
mm
Dir
 
Spd
km/h
Gust
km/h
Spd
kts
Gust
kts
22/09:30am 23.4 20.7 13.0 52 6.0 NE 19 24 10 13 1018.8 1018.3 0.0
22/09:00am 21.9 19.8 12.5 55 5.4 ENE 15 22 8 12 1018.8 1018.3 0.0
22/08:30am 20.9 18.5 12.6 59 4.7 ENE 17 22 9 12 1018.4 1017.9 0.0
22/08:00am 19.3 16.7 12.1 63 4.0 E 17 20 9 11 1018.3 1017.8 0.0
22/07:30am 16.8 14.8 10.0 64 3.6 ESE 11 13 6 7 1017.9 1017.3 0.0
22/07:00am 17.0 15.1 10.6 66 3.4 E 11 15 6 8 1017.4 1016.8 0.0
22/06:30am 17.5 14.3 10.1 62 4.0 E 17 20 9 11 1017.0 1016.4 0.0
22/06:00am 17.4 14.7 9.1 58 4.3 E 13 17 7 9 1016.6 1016.0 0.0
22/05:30am 18.1 14.6 8.9 55 4.8 E 17 20 9 11 1016.1 1015.5 0.0
22/05:00am 18.0 14.0 8.3 53 5.0 E 19 24 10 13 1015.5 1014.9 0.0
22/04:30am 18.6 14.4 8.3 51 5.4 E 20 26 11 14 1015.4 1014.8 0.0
22/04:00am 18.7 13.7 8.1 50 5.5 ESE 24 32 13 17 1015.3 1014.7 0.0
22/03:30am 18.9 14.4 8.6 51 5.4 ESE 22 30 12 16 1015.5 1014.9 0.0
22/03:00am 18.9 14.4 8.6 51 5.4 ESE 22 30 12 16 1015.5 1014.9 0.0
22/02:30am 19.0 14.4 8.1 49 5.7 ESE 22 28 12 15 1015.5 1014.9 0.0
22/02:00am 19.3 15.0 7.7 47 6.0 ESE 20 28 11 15 1015.8 1015.2 0.0
22/01:30am 19.7 15.6 7.8 46 6.2 ESE 19 24 10 13 1015.9 1015.3 0.0
22/01:00am 19.6 15.2 7.4 45 6.3 ESE 20 26 11 14 1016.0 1015.4 0.0
22/12:30am 19.5 14.6 6.9 44 6.4 ESE 22 28 12 15 1016.1 1015.5 0.0
22/12:00am 20.1 15.6 7.1 43 6.7 ESE 20 28 11 15 1016.2 1015.6 0.0
 
Date/Time
EST
Temp
°C
App
Temp
°C
Dew
Point
Rel
Hum
%
Delta-T
°C
Wind Press
QNH
hPa
Press
MSL
hPa
Rain
since 9 am
mm
Dir
 
Spd
km/h
Gust
km/h
Spd
kts
Gust
kts
21/11:30pm 20.5 16.2 7.2 42 6.9 ESE 19 22 10 12 1016.4 1015.8 0.0
21/11:00pm 20.1 16.0 6.4 41 6.9 SE 17 20 9 11 1016.5 1015.9 0.0
21/10:30pm 20.5 16.1 4.5 35 7.8 SE 17 20 9 11 1016.5 1015.9 0.0
21/10:00pm 19.8 15.2 1.3 29 8.5 SSE 15 19 8 10 1016.5 1015.9 0.0
21/09:30pm 19.8 15.2 1.3 29 8.5 S 15 17 8 9 1016.1 1015.5 0.0
21/09:00pm 20.2 15.8 0.6 27 8.9 SSW 13 15 7 8 1015.9 1015.3 0.0
21/08:30pm 20.9 16.6 0.7 26 9.2 SSW 13 15 7 8 1015.8 1015.2 0.0
21/08:00pm 21.7 17.1 1.4 26 9.4 SW 15 17 8 9 1015.5 1014.9 0.0
21/07:30pm 20.8 16.5 1.1 27 9.0 SW 13 15 7 8 1015.1 1014.5 0.0
21/07:00pm 21.7 17.5 1.4 26 9.4 SW 13 15 7 8 1014.7 1014.1 0.0
21/06:30pm 23.4 18.9 2.3 25 10.1 WSW 15 17 8 9 1014.3 1013.8 0.0
21/06:00pm 25.5 20.5 3.5 24 10.9 WSW 19 24 10 13 1013.8 1013.2 0.0
21/05:30pm 26.9 22.5 4.6 24 11.4 WSW 17 22 9 12 1013.6 1013.0 0.0
21/05:00pm 27.5 22.8 5.1 24 11.6 WSW 19 24 10 13 1013.3 1012.7 0.0
21/04:30pm 27.7 24.8 4.7 23 11.9 SW 9 15 5 8 1013.0 1012.4 0.0
21/04:00pm 27.9 23.3 5.5 24 11.7 W 19 24 10 13 1012.9 1012.3 0.0
21/03:30pm 27.2 24.2 6.0 26 11.1 W 11 17 6 9 1012.9 1012.3 0.0
21/03:00pm 27.6 25.3 5.8 25 11.4 SSW 7 13 4 7 1013.1 1012.5 0.0
21/02:30pm 26.3 23.1 5.3 26 10.8 WNW 11 17 6 9 1013.4 1012.8 0.0
21/02:00pm 26.8 22.6 5.7 26 11.0 W 17 24 9 13 1013.8 1013.2 0.0
21/01:30pm 26.5 22.5 6.5 28 10.6 W 17 24 9 13 1014.3 1013.8 0.0
21/01:00pm 26.4 24.0 6.9 29 10.4 NW 9 22 5 12 1014.8 1014.2 0.0
21/12:30pm 25.9 22.4 7.0 30 10.0 N 15 26 8 14 1015.4 1014.8 0.0
21/12:00pm 25.1 21.7 7.7 33 9.3 NW 15 22 8 12 1015.9 1015.3 0.0
21/11:30am 24.3 21.2 8.7 37 8.5 NNW 15 20 8 11 1016.4 1015.8 0.0
21/11:00am 23.8 20.6 10.1 42 7.6 N 17 26 9 14 1016.7 1016.1 0.0
21/10:30am 22.7 20.3 10.2 45 6.9 N 13 20 7 11 1017.1 1016.5 0.0
21/10:00am 21.2 18.9 7.4 41 7.2 N 9 19 5 10 1017.4 1016.8 0.0
21/09:30am 20.0 17.2 5.3 38 7.3 E 9 17 5 9 1017.4 1016.8 0.0
21/09:00am 17.5 14.3 3.0 38 6.7 E 9 13 5 7 1017.3 1016.7 0.2
21/08:30am 15.8 11.6 1.5 38 6.4 SE 13 19 7 10 1017.2 1016.6 0.2
21/08:00am 14.5 9.7 0.0 37 6.2 SE 15 20 8 11 1017.0 1016.4 0.2
21/07:30am 13.9 9.1 0.5 40 5.7 SE 15 19 8 10 1016.5 1015.9 0.2
21/07:00am 13.3 8.8 0.0 40 5.6 ESE 13 15 7 8 1016.2 1015.6 0.2
21/06:30am 13.8 8.6 0.1 39 5.8 ESE 17 20 9 11 1015.9 1015.3 0.2
21/06:00am 13.9 9.5 0.2 39 5.8 SE 13 19 7 10 1015.6 1015.0 0.2
21/05:30am 14.8 9.6 -0.1 36 6.3 SE 17 24 9 13 1015.5 1014.9 0.2
21/05:00am 12.9 9.1 -0.7 39 5.6 SW 9 11 5 6 1015.2 1014.6 0.2
21/04:30am 13.4 7.5 -0.6 38 5.8 SE 20 24 11 13 1015.2 1014.6 0.2
21/04:00am 12.5 8.2 -1.4 38 5.6 SSE 11 13 6 7 1015.3 1014.7 0.2
21/03:30am 13.4 8.7 -1.7 35 6.1 SSE 13 17 7 9 1015.4 1014.8 0.2
21/03:00am 14.3 9.3 -1.3 34 6.4 S 15 20 8 11 1015.4 1014.8 0.2
21/02:30am 14.4 9.0 -1.6 33 6.6 S 17 19 9 10 1015.7 1015.1 0.2
21/02:00am 14.9 8.9 -1.6 32 6.8 SSE 20 24 11 13 1016.1 1015.5 0.2
21/01:30am 14.4 8.5 -2.1 32 6.7 SSE 19 20 10 11 1016.5 1015.9 0.2
21/01:00am 14.7 9.2 -1.8 32 6.7 SSE 17 20 9 11 1016.7 1016.1 0.2
21/12:30am 14.0 8.8 -2.4 32 6.6 SSE 15 19 8 10 1016.8 1016.2 0.2
21/12:00am 14.1 9.3 -2.8 31 6.7 S 13 15 7 8 1017.0 1016.4 0.2
 
Date/Time
EST
Temp
°C
App
Temp
°C
Dew
Point
Rel
Hum
%
Delta-T
°C
Wind Press
QNH
hPa
Press
MSL
hPa
Rain
since 9 am
mm
Dir
 
Spd
km/h
Gust
km/h
Spd
kts
Gust
kts
20/11:30pm 14.4 9.2 -2.5 31 6.8 SSE 15 17 8 9 1017.1 1016.5 0.2
20/11:00pm 15.3 10.2 -2.2 30 7.1 S 15 17 8 9 1017.2 1016.6 0.2
20/10:30pm 16.2 11.1 -1.8 29 7.5 S 15 19 8 10 1017.1 1016.5 0.2
20/10:00pm 16.6 11.1 -2.0 28 7.7 S 17 20 9 11 1017.1 1016.5 0.2
20/09:30pm 16.7 11.2 -2.4 27 7.9 S 17 20 9 11 1016.9 1016.3 0.2
20/09:00pm 17.5 12.0 -2.2 26 8.2 S 17 20 9 11 1016.5 1015.9 0.2
20/08:30pm 19.2 13.4 -1.3 25 8.9 S 19 20 10 11 1016.2 1015.6 0.2
20/08:00pm 18.8 13.4 -1.1 26 8.6 SW 17 20 9 11 1015.5 1014.9 0.2
20/07:30pm 18.1 12.5 -2.8 24 8.7 SW 17 20 9 11 1015.2 1014.6 0.2
20/07:00pm 20.5 16.4 -0.2 25 9.2 W 11 13 6 7 1015.1 1014.5 0.2
20/06:30pm 22.1 17.7 0.6 24 9.9 W 13 17 7 9 1014.8 1014.2 0.2
20/06:00pm 24.7 20.0 0.9 21 11.2 W 15 20 8 11 1014.6 1014.0 0.2
20/05:30pm 25.9 20.5 1.2 20 11.8 W 19 24 10 13 1014.5 1013.9 0.2
20/05:00pm 26.4 22.2 1.7 20 12.0 NW 13 20 7 11 1014.0 1013.4 0.2
20/04:30pm 26.6 23.1 1.1 19 12.2 NW 9 20 5 11 1013.9 1013.3 0.2
20/04:00pm 26.8 21.4 1.3 19 12.3 W 19 24 10 13 1013.9 1013.3 0.2
20/03:30pm 26.3 23.1 0.9 19 12.1 NE 7 17 4 9 1014.0 1013.4 0.2
20/03:00pm 26.1 22.9 0.7 19 12.1 W 7 13 4 7 1014.5 1013.9 0.2
20/02:30pm 25.9 22.3 0.5 19 12.0 ENE 9 15 5 8 1014.9 1014.3 0.2
20/02:00pm 25.6 21.6 0.3 19 11.9 NW 11 17 6 9 1015.4 1014.8 0.2
20/01:30pm 25.3 21.2 0.0 19 11.8 NE 11 22 6 12 1015.7 1015.1 0.2
20/01:00pm 24.4 19.5 -0.7 19 11.4 SE 15 24 8 13 1016.2 1015.6 0.2
20/12:30pm 24.2 18.5 -0.9 19 11.4 E 19 26 10 14 1016.7 1016.1 0.2
20/12:00pm 24.0 18.2 -0.3 20 11.1 ESE 20 33 11 18 1017.3 1016.7 0.2
20/11:30am 22.7 16.0 -1.4 20 10.7 ESE 24 41 13 22 1017.8 1017.2 0.2
20/11:00am 21.6 14.1 -1.6 21 10.1 SE 28 37 15 20 1018.5 1018.0 0.2
20/10:30am 21.1 14.1 -0.2 24 9.6 ESE 26 35 14 19 1018.8 1018.3 0.2
20/10:00am 19.3 12.7 -0.7 26 8.7 ESE 24 32 13 17 1019.4 1018.9 0.2
20/09:30am 17.4 11.1 -1.3 28 7.9 ESE 22 30 12 16 1019.4 1018.9 0.2
20/09:00am 15.9 10.5 -1.2 31 7.2 ESE 17 20 9 11 1019.4 1018.9 0.0
20/08:30am 13.9 8.4 -2.1 33 6.5 ESE 17 19 9 10 1019.4 1018.9 0.0
20/08:00am 11.1 7.2 -1.6 41 5.0 E 9 11 5 6 1019.3 1018.8 0.0
20/07:30am 6.1 1.4 -5.5 43 3.9 SSE 11 15 6 8 1018.7 1018.2 0.0
20/07:00am 4.6 -0.3 -6.6 44 3.6 SSE 11 13 6 7 1018.4 1017.9 0.0
20/06:30am 5.0 0.2 -5.6 46 3.5 SSE 11 13 6 7 1018.5 1018.0 0.0
20/06:00am 4.6 0.2 -6.3 45 3.5 SE 9 17 5 9 1018.0 1017.4 0.0
20/05:30am 6.8 1.5 -6.8 37 4.5 SE 13 19 7 10 1017.8 1017.2 0.0
20/05:00am 8.6 2.8 -4.6 39 4.7 E 17 19 9 10 1017.5 1016.9 0.0
20/04:30am 8.6 2.7 -5.2 37 4.9 E 17 19 9 10 1017.7 1017.1 0.0
20/04:00am 8.8 3.0 -5.1 37 4.9 E 17 19 9 10 1017.6 1017.0 0.0
20/03:30am 7.3 2.1 -6.1 38 4.6 ESE 13 13 7 7 1017.4 1016.8 0.0
20/03:00am 8.6 3.0 -6.4 34 5.1 E 15 17 8 9 1017.6 1017.0 0.0
20/02:30am 9.6 4.5 -5.5 34 5.4 E 13 17 7 9 1017.7 1017.1 0.0
20/02:00am 10.3 5.5 -5.6 32 5.7 E 11 13 6 7 1017.8 1017.2 0.0
20/01:30am 11.4 5.9 -5.1 31 6.1 ESE 15 19 8 10 1018.0 1017.4 0.0
20/01:00am 12.6 7.5 -4.9 29 6.5 SE 13 17 7 9 1018.1 1017.5 0.0
20/12:30am 14.0 8.2 -4.2 28 7.0 SE 17 24 9 13 1018.1 1017.5 0.0
20/12:00am 14.3 8.0 -3.9 28 7.1 SE 20 24 11 13 1018.1 1017.5 0.0
 
Date/Time
EST
Temp
°C
App
Temp
°C
Dew
Point
Rel
Hum
%
Delta-T
°C
Wind Press
QNH
hPa
Press
MSL
hPa
Rain
since 9 am
mm
Dir
 
Spd
km/h
Gust
km/h
Spd
kts
Gust
kts
19/11:30pm 14.0 8.3 -3.7 29 6.9 SE 17 22 9 12 1018.2 1017.6 0.0
19/11:00pm 13.8 8.1 -3.5 30 6.7 SE 17 20 9 11 1018.1 1017.5 0.0
19/10:30pm 13.7 8.5 -3.1 31 6.6 SE 15 19 8 10 1018.2 1017.6 0.0
19/10:00pm 13.0 7.3 -4.1 30 6.5 SSE 17 20 9 11 1018.1 1017.5 0.0
19/09:30pm 12.8 6.6 -4.8 29 6.6 SSE 19 20 10 11 1018.1 1017.5 0.0
19/09:00pm 14.1 8.0 -3.6 29 6.9 SSE 19 20 10 11 1017.9 1017.3 0.0
19/08:30pm 13.3 7.5 -4.8 28 6.8 SSE 17 19 9 10 1017.7 1017.1 0.0
19/08:00pm 14.1 8.3 -5.1 26 7.3 SSE 17 19 9 10 1017.4 1016.8 0.0
19/07:30pm 16.0 9.9 -4.0 25 7.9 SSE 19 20 10 11 1017.2 1016.6 0.0
19/07:00pm 17.7 12.0 -3.7 23 8.7 SSE 17 19 9 10 1017.0 1016.4 0.0
19/06:30pm 19.1 13.7 -4.4 20 9.5 SSE 15 19 8 10 1016.8 1016.2 0.0
19/06:00pm 21.9 15.9 -2.7 19 10.6 SSE 19 24 10 13 1016.5 1015.9 0.0
19/05:30pm 23.1 17.5 -2.5 18 11.2 SE 17 20 9 11 1016.3 1015.7 0.0
19/05:00pm 23.7 19.2 -3.6 16 11.7 SE 11 19 6 10 1016.2 1015.6 0.0
19/04:30pm 23.8 18.9 -3.5 16 11.8 SE 13 20 7 11 1016.1 1015.5 0.0
19/04:00pm 23.8 18.6 -2.7 17 11.6 SSE 15 20 8 11 1016.0 1015.4 0.0
19/03:30pm 23.8 17.8 -2.7 17 11.6 S 19 30 10 16 1016.0 1015.4 0.0
19/03:00pm 24.5 18.7 -1.3 18 11.6 S 19 22 10 12 1016.3 1015.7 0.0
19/02:30pm 24.2 19.1 -1.6 18 11.6 E 15 24 8 13 1016.8 1016.2 0.0
19/02:00pm 23.2 17.8 -1.7 19 11.0 SSE 17 28 9 15 1017.1 1016.5 0.0
19/01:30pm 24.2 18.7 0.5 21 11.1 SSE 19 30 10 16 1017.4 1016.8 0.0
19/01:00pm 23.6 18.0 0.0 21 10.8 SE 19 24 10 13 1018.0 1017.4 0.0
19/12:30pm 22.7 17.0 0.5 23 10.2 SE 20 26 11 14 1018.7 1018.2 0.0
19/12:00pm 21.8 15.4 0.9 25 9.6 SE 24 32 13 17 1019.3 1018.8 0.0
19/11:30am 21.0 14.2 0.8 26 9.2 SE 26 32 14 17 1020.0 1019.4 0.0
19/11:00am 20.2 13.1 1.6 29 8.6 ESE 28 33 15 18 1020.6 1020.0 0.0
19/10:30am 19.2 11.4 1.7 31 8.0 ESE 32 41 17 22 1021.0 1020.4 0.0
19/10:00am 17.9 10.4 1.0 32 7.5 E 30 41 16 22 1021.3 1020.7 0.0

Other Formats:

Comma delimited format used in spreadsheet applications
http://www.bom.gov.au/fwo/IDQ60801/IDQ60801.94341.axf

JavaScript Object Notation format (JSON) in row-major order
http://www.bom.gov.au/fwo/IDQ60801/IDQ60801.94341.json